CKK8667 ZYCC-ZBAD
Flight info
| Callsign | CKK8667 |
|---|---|
| Flight time | 1h 20m |
| Altitude | 36100 |
| Route | BUTET9D BUTET G341 TGO G212 BUMDU BUMDU5L |
| Aircraft | B77L/H-SDE1E2E3FGHIJ2J3J4J5M1RWXY/LB1D1 |
Departure
| Time | 2026-04-29 14:58 |
|---|---|
| Airport | Changchun Longjia International Airport (ZYCC) |
Arrival
| Time | 2026-04-29 16:18 |
|---|---|
| Airport | Beijing Daxing International Airport (ZBAD) |
| Time | Latitude | Longitude | Altitude | Speed | Heading |
|---|---|---|---|---|---|
| 2026-04-29 14:43 | 44.00328 | 125.70307 | 722 ft | 0 kts | 318° |
| 2026-04-29 14:55 | 44.00335 | 125.70298 | 718 ft | 5 kts | 318° |
| 2026-04-29 14:55 | 44.00387 | 125.70234 | 723 ft | 15 kts | 318° |
| 2026-04-29 14:56 | 44.00453 | 125.70157 | 722 ft | 12 kts | 320° |
| 2026-04-29 14:56 | 44.00492 | 125.70112 | 722 ft | 5 kts | 320° |
| 2026-04-29 14:56 | 44.00534 | 125.70042 | 723 ft | 14 kts | 290° |
| 2026-04-29 14:56 | 44.00510 | 125.69927 | 722 ft | 12 kts | 235° |
| 2026-04-29 14:57 | 44.00437 | 125.69805 | 724 ft | 26 kts | 229° |
| 2026-04-29 14:57 | 44.00172 | 125.69380 | 722 ft | 96 kts | 229° |
| 2026-04-29 14:57 | 43.99581 | 125.68427 | 724 ft | 160 kts | 230° |
| 2026-04-29 14:57 | 43.98807 | 125.67109 | 1049 ft | 179 kts | 232° |
| 2026-04-29 14:58 | 43.97968 | 125.65698 | 1529 ft | 201 kts | 229° |
| 2026-04-29 14:58 | 43.97057 | 125.64262 | 2006 ft | 221 kts | 229° |
| 2026-04-29 15:01 | 43.96913 | 125.64036 | 2103 ft | 223 kts | 229° |
| 2026-04-29 15:01 | 43.95865 | 125.62386 | 2894 ft | 236 kts | 230° |
| 2026-04-29 15:01 | 43.94750 | 125.60623 | 3797 ft | 249 kts | 230° |
| 2026-04-29 15:02 | 43.93590 | 125.58785 | 4844 ft | 257 kts | 231° |
| 2026-04-29 15:02 | 43.92403 | 125.56896 | 5848 ft | 263 kts | 230° |
| 2026-04-29 15:02 | 43.91188 | 125.54960 | 6866 ft | 269 kts | 230° |
| 2026-04-29 15:02 | 43.89950 | 125.52987 | 7869 ft | 274 kts | 230° |
| 2026-04-29 15:03 | 43.88691 | 125.50978 | 8854 ft | 280 kts | 230° |
| 2026-04-29 15:03 | 43.87403 | 125.48924 | 9865 ft | 286 kts | 230° |
| 2026-04-29 15:03 | 43.86125 | 125.46889 | 10669 ft | 295 kts | 230° |
| 2026-04-29 15:03 | 43.84679 | 125.44581 | 11062 ft | 324 kts | 230° |
| 2026-04-29 15:04 | 43.83133 | 125.42116 | 11294 ft | 355 kts | 230° |
| 2026-04-29 15:04 | 43.81451 | 125.39440 | 11600 ft | 381 kts | 230° |
| 2026-04-29 15:04 | 43.79757 | 125.36587 | 12247 ft | 389 kts | 238° |
| 2026-04-29 15:04 | 43.78686 | 125.33117 | 13017 ft | 397 kts | 258° |
| 2026-04-29 15:05 | 43.78385 | 125.29348 | 13982 ft | 397 kts | 267° |
| 2026-04-29 15:05 | 43.78234 | 125.25501 | 14800 ft | 404 kts | 267° |
| 2026-04-29 15:05 | 43.78053 | 125.21600 | 15653 ft | 410 kts | 266° |
| 2026-04-29 15:05 | 43.77844 | 125.17662 | 16581 ft | 413 kts | 266° |
| 2026-04-29 15:06 | 43.77629 | 125.13827 | 17415 ft | 418 kts | 266° |
| 2026-04-29 15:06 | 43.77397 | 125.09796 | 18197 ft | 424 kts | 266° |
| 2026-04-29 15:06 | 43.77165 | 125.05703 | 18944 ft | 429 kts | 266° |
| 2026-04-29 15:06 | 43.76933 | 125.01588 | 19639 ft | 434 kts | 266° |
| 2026-04-29 15:07 | 43.76698 | 124.97431 | 20300 ft | 439 kts | 266° |
| 2026-04-29 15:07 | 43.76456 | 124.93186 | 20930 ft | 446 kts | 266° |
| 2026-04-29 15:07 | 43.76211 | 124.88893 | 21538 ft | 452 kts | 266° |
| 2026-04-29 15:07 | 43.75957 | 124.84529 | 22172 ft | 457 kts | 266° |
| 2026-04-29 15:08 | 43.75701 | 124.80131 | 22801 ft | 463 kts | 266° |
| 2026-04-29 15:08 | 43.75440 | 124.75690 | 23429 ft | 467 kts | 266° |
| 2026-04-29 15:08 | 43.75173 | 124.71197 | 23928 ft | 473 kts | 266° |
| 2026-04-29 15:08 | 43.74901 | 124.66646 | 24448 ft | 477 kts | 266° |
| 2026-04-29 15:09 | 43.74629 | 124.62122 | 25006 ft | 480 kts | 266° |
| 2026-04-29 15:09 | 43.74352 | 124.57519 | 25518 ft | 483 kts | 266° |
| 2026-04-29 15:09 | 43.74069 | 124.52824 | 25963 ft | 488 kts | 266° |
| 2026-04-29 15:09 | 43.73783 | 124.48141 | 26420 ft | 491 kts | 265° |
| 2026-04-29 15:10 | 43.73234 | 124.43471 | 26795 ft | 497 kts | 254° |
| 2026-04-29 15:10 | 43.71816 | 124.39119 | 27179 ft | 502 kts | 241° |
| 2026-04-29 15:10 | 43.70056 | 124.34941 | 27606 ft | 504 kts | 242° |
| 2026-04-29 15:10 | 43.68455 | 124.30637 | 27950 ft | 506 kts | 249° |
| 2026-04-29 15:11 | 43.67611 | 124.25939 | 28222 ft | 505 kts | 265° |
| 2026-04-29 15:11 | 43.67400 | 124.21101 | 28401 ft | 509 kts | 268° |
| 2026-04-29 15:11 | 43.67217 | 124.16213 | 28653 ft | 512 kts | 268° |
| 2026-04-29 15:11 | 43.67007 | 124.11335 | 29044 ft | 513 kts | 267° |
| 2026-04-29 15:12 | 43.66764 | 124.06424 | 29537 ft | 511 kts | 266° |
| 2026-04-29 15:12 | 43.66495 | 124.01536 | 30081 ft | 508 kts | 266° |
| 2026-04-29 15:12 | 43.66213 | 123.96697 | 30528 ft | 506 kts | 266° |
| 2026-04-29 15:12 | 43.65923 | 123.91871 | 30936 ft | 505 kts | 266° |
| 2026-04-29 15:13 | 43.65629 | 123.87048 | 31326 ft | 504 kts | 266° |
| 2026-04-29 15:13 | 43.65337 | 123.82255 | 31719 ft | 503 kts | 266° |
| 2026-04-29 15:13 | 43.65045 | 123.77467 | 32114 ft | 501 kts | 266° |
| 2026-04-29 15:13 | 43.64753 | 123.72680 | 32507 ft | 500 kts | 266° |
| 2026-04-29 15:14 | 43.64460 | 123.67915 | 32889 ft | 499 kts | 266° |
| 2026-04-29 15:14 | 43.64168 | 123.63169 | 33259 ft | 498 kts | 266° |
| 2026-04-29 15:14 | 43.63873 | 123.58428 | 33632 ft | 496 kts | 266° |
| 2026-04-29 15:14 | 43.63577 | 123.53691 | 34006 ft | 495 kts | 266° |
| 2026-04-29 15:15 | 43.63280 | 123.48974 | 34305 ft | 494 kts | 266° |
| 2026-04-29 15:15 | 43.62982 | 123.44267 | 34578 ft | 494 kts | 265° |
| 2026-04-29 15:15 | 43.62681 | 123.39562 | 34854 ft | 493 kts | 265° |
| 2026-04-29 15:15 | 43.62380 | 123.34864 | 35122 ft | 493 kts | 265° |
| 2026-04-29 15:16 | 43.62076 | 123.30167 | 35393 ft | 492 kts | 265° |
| 2026-04-29 15:16 | 43.61771 | 123.25470 | 35665 ft | 491 kts | 265° |
| 2026-04-29 15:16 | 43.61464 | 123.20787 | 35923 ft | 491 kts | 265° |
| 2026-04-29 15:16 | 43.61178 | 123.16144 | 36186 ft | 490 kts | 266° |
| 2026-04-29 15:17 | 43.60933 | 123.11439 | 36448 ft | 490 kts | 266° |
| 2026-04-29 15:17 | 43.60707 | 123.06762 | 36697 ft | 489 kts | 266° |
| 2026-04-29 15:17 | 43.60485 | 123.02088 | 36942 ft | 489 kts | 266° |
| 2026-04-29 15:17 | 43.60258 | 122.97415 | 37189 ft | 488 kts | 266° |
| 2026-04-29 15:18 | 43.60025 | 122.92764 | 37418 ft | 487 kts | 266° |
| 2026-04-29 15:18 | 43.59786 | 122.88123 | 37762 ft | 485 kts | 266° |
| 2026-04-29 15:18 | 43.59544 | 122.83502 | 37969 ft | 484 kts | 266° |
| 2026-04-29 15:19 | 43.59062 | 122.74460 | 37970 ft | 463 kts | 266° |
| 2026-04-29 15:19 | 43.58588 | 122.65677 | 37980 ft | 459 kts | 266° |
| 2026-04-29 15:20 | 43.58109 | 122.56930 | 37989 ft | 458 kts | 265° |
| 2026-04-29 15:20 | 43.57626 | 122.48215 | 37988 ft | 458 kts | 265° |
| 2026-04-29 15:21 | 43.57136 | 122.39491 | 37985 ft | 459 kts | 265° |
| 2026-04-29 15:21 | 43.56636 | 122.30695 | 38004 ft | 459 kts | 265° |
| 2026-04-29 15:22 | 43.55770 | 122.22014 | 37987 ft | 460 kts | 253° |
| 2026-04-29 15:22 | 43.53181 | 122.13992 | 37977 ft | 461 kts | 237° |
| 2026-04-29 15:23 | 43.49476 | 122.06794 | 37971 ft | 462 kts | 234° |
| 2026-04-29 15:23 | 43.45682 | 121.99676 | 37988 ft | 462 kts | 234° |
| 2026-04-29 15:24 | 43.41911 | 121.92521 | 37987 ft | 463 kts | 234° |
| 2026-04-29 15:24 | 43.38155 | 121.85333 | 37987 ft | 464 kts | 235° |
| 2026-04-29 15:25 | 43.34398 | 121.78133 | 37989 ft | 465 kts | 235° |
| 2026-04-29 15:25 | 43.30629 | 121.70927 | 37993 ft | 467 kts | 234° |
| 2026-04-29 15:26 | 43.26801 | 121.63628 | 37997 ft | 476 kts | 234° |
| 2026-04-29 15:26 | 43.22918 | 121.56247 | 37992 ft | 479 kts | 234° |
| 2026-04-29 15:27 | 43.19032 | 121.48878 | 37992 ft | 479 kts | 234° |
| 2026-04-29 15:27 | 43.15133 | 121.41504 | 37996 ft | 479 kts | 234° |
| 2026-04-29 15:28 | 43.11234 | 121.34146 | 37992 ft | 478 kts | 234° |
| 2026-04-29 15:28 | 43.07326 | 121.26791 | 37996 ft | 478 kts | 234° |
| 2026-04-29 15:29 | 43.03418 | 121.19452 | 37997 ft | 478 kts | 234° |
| 2026-04-29 15:30 | 42.95584 | 121.04799 | 38002 ft | 478 kts | 234° |
| 2026-04-29 15:30 | 42.91655 | 120.97475 | 38011 ft | 480 kts | 234° |
| 2026-04-29 15:31 | 42.87715 | 120.90149 | 38005 ft | 481 kts | 234° |
| 2026-04-29 15:31 | 42.83767 | 120.82828 | 38008 ft | 480 kts | 234° |
| 2026-04-29 15:32 | 42.79811 | 120.75509 | 38010 ft | 482 kts | 233° |
| 2026-04-29 15:32 | 42.75833 | 120.68168 | 38015 ft | 484 kts | 233° |
| 2026-04-29 15:33 | 42.71818 | 120.60779 | 38018 ft | 489 kts | 233° |
| 2026-04-29 15:33 | 42.67764 | 120.53345 | 38012 ft | 492 kts | 233° |
| 2026-04-29 15:34 | 42.63693 | 120.45884 | 38018 ft | 493 kts | 233° |
| 2026-04-29 15:34 | 42.59617 | 120.38433 | 38020 ft | 492 kts | 233° |
| 2026-04-29 15:35 | 42.55548 | 120.31010 | 38025 ft | 491 kts | 233° |
| 2026-04-29 15:35 | 42.51482 | 120.23617 | 38027 ft | 489 kts | 233° |
| 2026-04-29 15:36 | 42.47497 | 120.16389 | 38032 ft | 488 kts | 233° |
| 2026-04-29 15:36 | 42.43437 | 120.09044 | 38034 ft | 487 kts | 233° |
| 2026-04-29 15:37 | 42.39387 | 120.01734 | 38032 ft | 487 kts | 233° |
| 2026-04-29 15:37 | 42.35329 | 119.94426 | 38039 ft | 486 kts | 233° |
| 2026-04-29 15:38 | 42.31266 | 119.87130 | 38040 ft | 486 kts | 233° |
| 2026-04-29 15:38 | 42.27211 | 119.79864 | 38041 ft | 487 kts | 233° |
| 2026-04-29 15:39 | 42.23130 | 119.72569 | 38041 ft | 487 kts | 233° |
| 2026-04-29 15:39 | 42.19044 | 119.65283 | 38043 ft | 488 kts | 233° |
| 2026-04-29 15:40 | 42.14959 | 119.58022 | 38044 ft | 488 kts | 232° |
| 2026-04-29 15:40 | 42.10856 | 119.50738 | 38050 ft | 489 kts | 233° |
| 2026-04-29 15:41 | 42.06749 | 119.43465 | 38045 ft | 489 kts | 232° |
| 2026-04-29 15:41 | 42.02632 | 119.36195 | 38049 ft | 490 kts | 232° |
| 2026-04-29 15:42 | 41.98519 | 119.28956 | 38051 ft | 490 kts | 232° |
| 2026-04-29 15:42 | 41.94374 | 119.21667 | 38052 ft | 490 kts | 232° |
| 2026-04-29 15:43 | 41.90242 | 119.14419 | 38060 ft | 490 kts | 232° |
| 2026-04-29 15:43 | 41.86679 | 119.08185 | 38060 ft | 490 kts | 232° |
| 2026-04-29 15:44 | 41.82545 | 119.00968 | 38063 ft | 490 kts | 232° |
| 2026-04-29 15:44 | 41.78379 | 118.93714 | 38068 ft | 490 kts | 232° |
| 2026-04-29 15:45 | 41.74287 | 118.86606 | 38074 ft | 491 kts | 232° |
| 2026-04-29 15:45 | 41.70128 | 118.79396 | 38075 ft | 492 kts | 232° |
| 2026-04-29 15:46 | 41.65942 | 118.72158 | 38084 ft | 493 kts | 232° |
| 2026-04-29 15:46 | 41.61945 | 118.65263 | 38083 ft | 494 kts | 232° |
| 2026-04-29 15:47 | 41.57775 | 118.58084 | 38079 ft | 493 kts | 232° |
| 2026-04-29 15:47 | 41.53551 | 118.50828 | 38082 ft | 492 kts | 232° |
| 2026-04-29 15:48 | 41.49443 | 118.43661 | 38067 ft | 477 kts | 235° |
| 2026-04-29 15:48 | 41.47659 | 118.39971 | 37550 ft | 473 kts | 238° |
| 2026-04-29 15:48 | 41.45956 | 118.36246 | 37066 ft | 468 kts | 238° |
| 2026-04-29 15:48 | 41.44299 | 118.32569 | 36399 ft | 467 kts | 238° |
| 2026-04-29 15:49 | 41.42608 | 118.28823 | 35398 ft | 475 kts | 238° |
| 2026-04-29 15:49 | 41.40887 | 118.25030 | 34229 ft | 487 kts | 237° |
| 2026-04-29 15:49 | 41.39114 | 118.21153 | 32796 ft | 501 kts | 237° |
| 2026-04-29 15:49 | 41.37261 | 118.17127 | 31363 ft | 512 kts | 238° |
| 2026-04-29 15:50 | 41.35390 | 118.13077 | 30211 ft | 517 kts | 238° |
| 2026-04-29 15:50 | 41.33506 | 118.09004 | 28974 ft | 518 kts | 238° |
| 2026-04-29 15:50 | 41.31631 | 118.04953 | 28062 ft | 514 kts | 238° |
| 2026-04-29 15:50 | 41.29767 | 118.00931 | 27114 ft | 510 kts | 238° |
| 2026-04-29 15:51 | 41.27911 | 117.96931 | 26171 ft | 508 kts | 238° |
| 2026-04-29 15:51 | 41.26061 | 117.92950 | 25265 ft | 506 kts | 238° |
| 2026-04-29 15:51 | 41.24221 | 117.88998 | 24373 ft | 505 kts | 238° |
| 2026-04-29 15:51 | 41.22376 | 117.85040 | 23532 ft | 502 kts | 238° |
| 2026-04-29 15:52 | 41.20556 | 117.81141 | 22760 ft | 496 kts | 238° |
| 2026-04-29 15:52 | 41.18750 | 117.77276 | 22129 ft | 487 kts | 238° |
| 2026-04-29 15:52 | 41.16986 | 117.73505 | 21468 ft | 480 kts | 238° |
| 2026-04-29 15:52 | 41.15241 | 117.69781 | 20772 ft | 474 kts | 238° |
| 2026-04-29 15:53 | 41.13504 | 117.66076 | 20090 ft | 469 kts | 238° |
| 2026-04-29 15:53 | 41.11800 | 117.62446 | 19464 ft | 463 kts | 238° |
| 2026-04-29 15:53 | 41.10146 | 117.58925 | 18867 ft | 458 kts | 238° |
| 2026-04-29 15:53 | 41.08444 | 117.55306 | 18253 ft | 453 kts | 238° |
| 2026-04-29 15:54 | 41.06788 | 117.51792 | 17600 ft | 447 kts | 238° |
| 2026-04-29 15:54 | 41.05127 | 117.48376 | 16932 ft | 439 kts | 234° |
| 2026-04-29 15:54 | 41.03074 | 117.45421 | 16191 ft | 437 kts | 220° |
| 2026-04-29 15:54 | 41.00616 | 117.43122 | 15572 ft | 431 kts | 209° |
| 2026-04-29 15:55 | 40.97931 | 117.41492 | 14978 ft | 421 kts | 199° |
| 2026-04-29 15:55 | 40.95209 | 117.40167 | 14369 ft | 419 kts | 199° |
| 2026-04-29 15:55 | 40.92467 | 117.38829 | 14104 ft | 420 kts | 199° |
| 2026-04-29 15:55 | 40.89737 | 117.37478 | 13930 ft | 418 kts | 200° |
| 2026-04-29 15:56 | 40.87030 | 117.36121 | 13889 ft | 416 kts | 200° |
| 2026-04-29 15:56 | 40.84342 | 117.34761 | 13896 ft | 415 kts | 200° |
| 2026-04-29 15:56 | 40.81651 | 117.33394 | 13895 ft | 416 kts | 200° |
| 2026-04-29 15:56 | 40.78951 | 117.32024 | 13889 ft | 416 kts | 200° |
| 2026-04-29 15:57 | 40.76250 | 117.30655 | 13887 ft | 416 kts | 200° |
| 2026-04-29 15:57 | 40.73629 | 117.29128 | 13876 ft | 413 kts | 211° |
| 2026-04-29 15:57 | 40.71647 | 117.26964 | 13896 ft | 418 kts | 229° |
| 2026-04-29 15:57 | 40.70054 | 117.23801 | 13898 ft | 417 kts | 246° |
| 2026-04-29 15:58 | 40.69066 | 117.20227 | 13893 ft | 416 kts | 252° |
| 2026-04-29 15:58 | 40.68126 | 117.16630 | 13882 ft | 417 kts | 251° |
| 2026-04-29 15:58 | 40.67161 | 117.13031 | 13882 ft | 416 kts | 251° |
| 2026-04-29 15:58 | 40.66185 | 117.09465 | 13881 ft | 416 kts | 251° |
| 2026-04-29 15:59 | 40.65197 | 117.05895 | 13882 ft | 415 kts | 251° |
| 2026-04-29 15:59 | 40.64204 | 117.02332 | 13880 ft | 415 kts | 251° |
| 2026-04-29 15:59 | 40.63209 | 116.98775 | 13882 ft | 415 kts | 251° |
| 2026-04-29 15:59 | 40.62212 | 116.95215 | 13886 ft | 415 kts | 251° |
| 2026-04-29 16:00 | 40.61193 | 116.91676 | 13878 ft | 412 kts | 247° |
| 2026-04-29 16:00 | 40.59783 | 116.88419 | 13884 ft | 414 kts | 234° |
| 2026-04-29 16:00 | 40.57867 | 116.85594 | 13637 ft | 412 kts | 223° |
| 2026-04-29 16:00 | 40.55685 | 116.83210 | 13006 ft | 407 kts | 219° |
| 2026-04-29 16:01 | 40.53517 | 116.80858 | 12400 ft | 403 kts | 220° |
| 2026-04-29 16:01 | 40.51392 | 116.78501 | 11775 ft | 399 kts | 220° |
| 2026-04-29 16:01 | 40.49301 | 116.76156 | 11180 ft | 394 kts | 220° |
| 2026-04-29 16:01 | 40.47225 | 116.73821 | 10584 ft | 390 kts | 220° |
| 2026-04-29 16:02 | 40.45188 | 116.71531 | 10027 ft | 385 kts | 220° |
| 2026-04-29 16:02 | 40.43169 | 116.69266 | 9411 ft | 380 kts | 220° |
| 2026-04-29 16:02 | 40.41027 | 116.67292 | 8752 ft | 376 kts | 208° |
| 2026-04-29 16:02 | 40.38628 | 116.65980 | 8110 ft | 369 kts | 199° |
| 2026-04-29 16:03 | 40.36214 | 116.64861 | 7386 ft | 370 kts | 200° |
| 2026-04-29 16:03 | 40.33829 | 116.63659 | 6897 ft | 364 kts | 201° |
| 2026-04-29 16:03 | 40.31531 | 116.62465 | 6753 ft | 347 kts | 202° |
| 2026-04-29 16:03 | 40.29349 | 116.61325 | 6650 ft | 331 kts | 202° |
| 2026-04-29 16:04 | 40.27256 | 116.60231 | 6546 ft | 316 kts | 202° |
| 2026-04-29 16:04 | 40.25264 | 116.59192 | 6453 ft | 302 kts | 202° |
| 2026-04-29 16:04 | 40.23368 | 116.58205 | 6409 ft | 285 kts | 202° |
| 2026-04-29 16:04 | 40.21587 | 116.57279 | 6494 ft | 269 kts | 202° |
| 2026-04-29 16:05 | 40.19813 | 116.56357 | 6497 ft | 276 kts | 202° |
| 2026-04-29 16:05 | 40.18047 | 116.55440 | 6492 ft | 270 kts | 202° |
| 2026-04-29 16:05 | 40.16318 | 116.54544 | 6483 ft | 266 kts | 202° |
| 2026-04-29 16:05 | 40.14594 | 116.53650 | 6487 ft | 267 kts | 202° |
| 2026-04-29 16:06 | 40.12864 | 116.52755 | 6489 ft | 269 kts | 202° |
| 2026-04-29 16:06 | 40.11131 | 116.51857 | 6492 ft | 270 kts | 202° |
| 2026-04-29 16:06 | 40.09385 | 116.50954 | 6489 ft | 270 kts | 202° |
| 2026-04-29 16:06 | 40.07637 | 116.50051 | 6491 ft | 271 kts | 202° |
| 2026-04-29 16:07 | 40.05891 | 116.49149 | 6494 ft | 271 kts | 202° |
| 2026-04-29 16:07 | 40.04144 | 116.48247 | 6500 ft | 270 kts | 202° |
| 2026-04-29 16:07 | 40.02400 | 116.47347 | 6489 ft | 270 kts | 202° |
| 2026-04-29 16:07 | 40.00660 | 116.46450 | 6489 ft | 269 kts | 202° |
| 2026-04-29 16:08 | 39.98916 | 116.45551 | 6405 ft | 270 kts | 202° |
| 2026-04-29 16:08 | 39.97176 | 116.44654 | 6124 ft | 268 kts | 202° |
| 2026-04-29 16:08 | 39.95463 | 116.43772 | 5789 ft | 263 kts | 202° |
| 2026-04-29 16:08 | 39.93784 | 116.42908 | 5588 ft | 257 kts | 202° |
| 2026-04-29 16:09 | 39.92117 | 116.42050 | 5399 ft | 259 kts | 201° |
| 2026-04-29 16:09 | 39.90443 | 116.41190 | 5217 ft | 261 kts | 201° |
| 2026-04-29 16:09 | 39.88757 | 116.40323 | 5063 ft | 260 kts | 201° |
| 2026-04-29 16:09 | 39.87077 | 116.39460 | 4906 ft | 260 kts | 201° |
| 2026-04-29 16:10 | 39.85403 | 116.38600 | 4749 ft | 260 kts | 201° |
| 2026-04-29 16:10 | 39.83731 | 116.37743 | 4602 ft | 257 kts | 201° |
| 2026-04-29 16:10 | 39.82070 | 116.36892 | 4408 ft | 255 kts | 202° |
| 2026-04-29 16:10 | 39.80501 | 116.36089 | 4129 ft | 253 kts | 202° |
| 2026-04-29 16:11 | 39.78849 | 116.35505 | 3880 ft | 245 kts | 184° |
| 2026-04-29 16:11 | 39.77146 | 116.35590 | 3704 ft | 246 kts | 176° |
| 2026-04-29 16:11 | 39.75481 | 116.35821 | 3320 ft | 236 kts | 175° |
| 2026-04-29 16:11 | 39.73918 | 116.36074 | 2892 ft | 217 kts | 175° |
| 2026-04-29 16:12 | 39.72472 | 116.36310 | 2381 ft | 204 kts | 175° |
| 2026-04-29 16:12 | 39.71118 | 116.36528 | 2027 ft | 186 kts | 176° |
| 2026-04-29 16:12 | 39.69929 | 116.36721 | 1894 ft | 156 kts | 176° |
| 2026-04-29 16:12 | 39.68942 | 116.36879 | 1878 ft | 139 kts | 177° |
| 2026-04-29 16:13 | 39.67974 | 116.37030 | 1895 ft | 140 kts | 177° |
| 2026-04-29 16:13 | 39.67009 | 116.37183 | 1894 ft | 140 kts | 177° |
| 2026-04-29 16:13 | 39.66042 | 116.37338 | 1898 ft | 140 kts | 177° |
| 2026-04-29 16:13 | 39.65076 | 116.37491 | 1900 ft | 140 kts | 177° |
| 2026-04-29 16:14 | 39.64114 | 116.37644 | 1914 ft | 140 kts | 177° |
| 2026-04-29 16:14 | 39.63148 | 116.37798 | 1912 ft | 140 kts | 177° |
| 2026-04-29 16:14 | 39.62174 | 116.37953 | 1854 ft | 143 kts | 177° |
| 2026-04-29 16:14 | 39.61182 | 116.38113 | 1618 ft | 144 kts | 176° |
| 2026-04-29 16:15 | 39.60228 | 116.38265 | 1531 ft | 137 kts | 176° |
| 2026-04-29 16:15 | 39.59278 | 116.38416 | 1520 ft | 139 kts | 176° |
| 2026-04-29 16:15 | 39.58297 | 116.38570 | 1385 ft | 145 kts | 176° |
| 2026-04-29 16:15 | 39.57313 | 116.38729 | 1182 ft | 140 kts | 176° |
| 2026-04-29 16:16 | 39.56364 | 116.38880 | 1003 ft | 137 kts | 176° |
| 2026-04-29 16:16 | 39.55408 | 116.39031 | 837 ft | 140 kts | 174° |
| 2026-04-29 16:16 | 39.54439 | 116.39187 | 643 ft | 140 kts | 174° |
| 2026-04-29 16:16 | 39.53485 | 116.39336 | 480 ft | 139 kts | 174° |
| 2026-04-29 16:17 | 39.52509 | 116.39488 | 247 ft | 142 kts | 173° |
| 2026-04-29 16:17 | 39.51562 | 116.39647 | 122 ft | 138 kts | 173° |
| 2026-04-29 16:17 | 39.50671 | 116.39785 | 100 ft | 111 kts | 173° |
| 2026-04-29 16:17 | 39.50056 | 116.39886 | 104 ft | 69 kts | 173° |
| 2026-04-29 16:18 | 39.49793 | 116.39929 | 100 ft | 23 kts | 169° |
| 2026-04-29 16:18 | 39.49643 | 116.40005 | 100 ft | 23 kts | 152° |
| 2026-04-29 16:18 | 39.49506 | 116.40119 | 97 ft | 23 kts | 147° |
| 2026-04-29 16:18 | 39.49418 | 116.40195 | 95 ft | 15 kts | 139° |
| 2026-04-29 16:19 | 39.49395 | 116.40325 | 94 ft | 16 kts | 86° |
| 2026-04-29 16:19 | 39.49409 | 116.40464 | 92 ft | 16 kts | 84° |
| 2026-04-29 16:19 | 39.49420 | 116.40604 | 92 ft | 16 kts | 83° |
| 2026-04-29 16:19 | 39.49434 | 116.40744 | 91 ft | 16 kts | 82° |
| 2026-04-29 16:20 | 39.49449 | 116.40882 | 91 ft | 16 kts | 82° |
| 2026-04-29 16:20 | 39.49463 | 116.41022 | 92 ft | 16 kts | 82° |
| 2026-04-29 16:20 | 39.49477 | 116.41161 | 89 ft | 16 kts | 82° |
| 2026-04-29 16:20 | 39.49491 | 116.41300 | 91 ft | 16 kts | 82° |
| 2026-04-29 16:21 | 39.49503 | 116.41440 | 90 ft | 16 kts | 85° |
| 2026-04-29 16:21 | 39.49514 | 116.41580 | 91 ft | 16 kts | 84° |
| 2026-04-29 16:21 | 39.49527 | 116.41719 | 91 ft | 16 kts | 83° |
| 2026-04-29 16:21 | 39.49541 | 116.41858 | 93 ft | 16 kts | 83° |
| 2026-04-29 16:22 | 39.49554 | 116.41998 | 92 ft | 16 kts | 83° |
| 2026-04-29 16:22 | 39.49566 | 116.42138 | 91 ft | 16 kts | 84° |
| 2026-04-29 16:22 | 39.49584 | 116.42259 | 92 ft | 11 kts | 57° |
| 2026-04-29 16:22 | 39.49655 | 116.42290 | 91 ft | 11 kts | 358° |
| 2026-04-29 16:23 | 39.49734 | 116.42281 | 92 ft | 12 kts | 353° |
| 2026-04-29 16:23 | 39.49816 | 116.42267 | 92 ft | 12 kts | 353° |
| 2026-04-29 16:23 | 39.49902 | 116.42254 | 92 ft | 13 kts | 354° |
| 2026-04-29 16:23 | 39.49990 | 116.42240 | 93 ft | 13 kts | 353° |
| 2026-04-29 16:24 | 39.50078 | 116.42226 | 92 ft | 13 kts | 353° |
| 2026-04-29 16:24 | 39.50165 | 116.42212 | 92 ft | 13 kts | 353° |
| 2026-04-29 16:24 | 39.50253 | 116.42198 | 91 ft | 13 kts | 353° |
| 2026-04-29 16:24 | 39.50340 | 116.42185 | 92 ft | 13 kts | 353° |
| 2026-04-29 16:25 | 39.50428 | 116.42171 | 93 ft | 13 kts | 354° |
| 2026-04-29 16:25 | 39.50520 | 116.42158 | 93 ft | 14 kts | 354° |
| 2026-04-29 16:25 | 39.50616 | 116.42145 | 92 ft | 14 kts | 354° |
| 2026-04-29 16:25 | 39.50715 | 116.42130 | 93 ft | 15 kts | 351° |
| 2026-04-29 16:26 | 39.50815 | 116.42111 | 92 ft | 15 kts | 353° |
| 2026-04-29 16:26 | 39.50916 | 116.42094 | 93 ft | 15 kts | 353° |
| 2026-04-29 16:26 | 39.51016 | 116.42080 | 91 ft | 15 kts | 354° |
| 2026-04-29 16:26 | 39.51117 | 116.42064 | 90 ft | 15 kts | 352° |
| 2026-04-29 16:27 | 39.51219 | 116.42048 | 91 ft | 15 kts | 353° |
| 2026-04-29 16:27 | 39.51320 | 116.42031 | 91 ft | 15 kts | 352° |
| 2026-04-29 16:27 | 39.51422 | 116.42015 | 90 ft | 15 kts | 354° |
| 2026-04-29 16:27 | 39.51523 | 116.42000 | 90 ft | 15 kts | 353° |
| 2026-04-29 16:28 | 39.51628 | 116.41983 | 91 ft | 15 kts | 353° |
| 2026-04-29 16:28 | 39.51720 | 116.41968 | 92 ft | 3 kts | 353° |
| 2026-04-29 16:28 | 39.51729 | 116.41965 | 91 ft | 0 kts | 342° |
| 2026-04-29 16:28 | 39.51736 | 116.41962 | 93 ft | 2 kts | 341° |
| 2026-04-29 16:29 | 39.51743 | 116.41949 | 92 ft | 2 kts | 289° |
| 2026-04-29 16:29 | 39.51736 | 116.41933 | 93 ft | 2 kts | 238° |
| 2026-04-29 16:29 | 39.51729 | 116.41908 | 93 ft | 4 kts | 261° |
| 2026-04-29 16:29 | 39.51727 | 116.41879 | 91 ft | 2 kts | 268° |